createdAt,value
2022-09-12T00:00:56.673Z,12.12
2022-09-12T00:01:56.650Z,12.10
2022-09-12T00:02:56.649Z,12.17
2022-09-12T00:03:56.684Z,12.16
2022-09-12T00:04:56.676Z,12.16
2022-09-12T00:05:56.698Z,12.16
2022-09-12T00:06:56.703Z,12.10
2022-09-12T00:07:56.746Z,12.10
2022-09-12T00:08:56.733Z,12.16
2022-09-12T00:09:56.748Z,12.13
2022-09-12T00:10:56.765Z,12.05
2022-09-12T00:11:56.775Z,12.12
2022-09-12T00:12:56.792Z,12.05
2022-09-12T00:13:56.804Z,12.07
2022-09-12T00:14:56.821Z,12.04
2022-09-12T00:15:56.837Z,11.99
2022-09-12T00:16:56.848Z,12.05
2022-09-12T00:17:56.868Z,12.07
2022-09-12T00:18:56.878Z,12.02
2022-09-12T00:19:56.890Z,11.90
2022-09-12T00:20:56.905Z,11.91
2022-09-12T00:21:56.919Z,11.95
2022-09-12T00:22:56.936Z,12.01
2022-09-12T00:23:56.994Z,12.01
2022-09-12T00:24:56.969Z,11.96
2022-09-12T00:25:56.979Z,11.99
2022-09-12T00:26:57.006Z,11.88
2022-09-12T00:27:57.006Z,11.90
2022-09-12T00:28:57.022Z,11.99
2022-09-12T00:29:57.103Z,11.88
2022-09-12T00:30:57.056Z,12.01
2022-09-12T00:31:57.130Z,11.94
2022-09-12T00:32:57.080Z,11.91
2022-09-12T00:33:57.094Z,11.94
2022-09-12T00:34:57.104Z,11.94
2022-09-12T00:35:57.121Z,11.85
2022-09-12T00:36:57.143Z,11.86
2022-09-12T00:37:57.153Z,11.85
2022-09-12T00:38:57.162Z,11.83
2022-09-12T00:39:57.241Z,11.86
2022-09-12T00:40:57.191Z,11.76
2022-09-12T00:41:57.210Z,11.80
2022-09-12T00:42:57.221Z,11.78
2022-09-12T00:43:57.234Z,11.69
2022-09-12T00:44:57.249Z,11.70
2022-09-12T00:45:57.292Z,11.65
2022-09-12T00:46:57.276Z,11.69
2022-09-12T00:47:57.290Z,11.62
2022-09-12T00:48:57.303Z,11.64
2022-09-12T00:49:57.322Z,11.69
2022-09-12T00:50:57.334Z,11.67
2022-09-12T00:51:57.351Z,11.69
2022-09-12T00:52:57.368Z,11.65
2022-09-12T00:53:57.381Z,11.67
2022-09-12T00:54:57.387Z,11.70
2022-09-12T00:55:57.427Z,11.65
2022-09-12T00:56:57.419Z,11.67
2022-09-12T00:57:57.433Z,11.73
2022-09-12T00:58:57.451Z,11.65
2022-09-12T00:59:57.459Z,11.65
2022-09-12T01:00:57.621Z,11.65
2022-09-12T01:01:57.546Z,11.64
2022-09-12T01:02:57.500Z,11.58
2022-09-12T01:03:57.517Z,11.54
2022-09-12T01:04:57.532Z,11.49
2022-09-12T01:05:57.575Z,11.55
2022-09-12T01:06:57.560Z,11.46
2022-09-12T01:07:57.575Z,11.51
2022-09-12T01:08:57.587Z,11.55
2022-09-12T01:09:57.604Z,11.46
2022-09-12T01:10:57.672Z,11.44
2022-09-12T01:11:57.660Z,11.52
2022-09-12T01:12:57.644Z,11.52
2022-09-12T01:13:57.657Z,11.54
2022-09-12T01:14:57.670Z,11.47
2022-09-12T01:15:57.683Z,11.44
2022-09-12T01:16:57.701Z,11.44
2022-09-12T01:17:57.711Z,11.47
2022-09-12T01:18:57.727Z,11.46
2022-09-12T01:19:57.742Z,11.46
2022-09-12T01:20:57.756Z,11.44
2022-09-12T01:21:57.768Z,11.47
2022-09-12T01:22:57.780Z,11.37
2022-09-12T01:23:57.895Z,11.51
2022-09-12T01:24:57.809Z,11.49
2022-09-12T01:25:57.822Z,11.43
2022-09-12T01:26:57.832Z,11.44
2022-09-12T01:27:57.877Z,11.44
2022-09-12T01:28:57.863Z,11.44
2022-09-12T01:29:57.876Z,11.47
2022-09-12T01:30:57.893Z,11.37
2022-09-12T01:31:57.949Z,11.39
2022-09-12T01:32:57.923Z,11.43
2022-09-12T01:33:57.934Z,11.42
2022-09-12T01:34:57.948Z,11.44
2022-09-12T01:35:57.963Z,11.39
2022-09-12T01:36:57.976Z,11.43
2022-09-12T01:37:57.986Z,11.40
2022-09-12T01:38:58.001Z,11.44
2022-09-12T01:39:58.097Z,11.40
2022-09-12T01:40:58.032Z,11.35
2022-09-12T01:41:58.044Z,11.33
2022-09-12T01:42:58.057Z,11.42
2022-09-12T01:43:58.199Z,11.43
2022-09-12T01:44:58.089Z,11.36
2022-09-12T01:45:58.151Z,11.32
2022-09-12T01:46:58.111Z,11.32
2022-09-12T01:47:58.127Z,11.27
2022-09-12T01:48:58.140Z,11.27
2022-09-12T01:49:58.157Z,11.36
2022-09-12T01:50:58.169Z,11.24
2022-09-12T01:51:58.189Z,11.35
2022-09-12T01:52:58.194Z,11.35
2022-09-12T01:53:58.310Z,11.33
2022-09-12T01:54:58.221Z,11.29
2022-09-12T01:55:58.247Z,11.32
2022-09-12T01:56:58.255Z,11.28
2022-09-12T01:57:58.264Z,11.24
2022-09-12T01:58:58.279Z,11.24
2022-09-12T01:59:58.316Z,11.35
2022-09-12T02:00:58.341Z,11.24
2022-09-12T02:01:58.370Z,11.29
2022-09-12T02:02:58.331Z,11.25
2022-09-12T02:03:58.355Z,11.36
2022-09-12T02:04:58.367Z,11.32
2022-09-12T02:05:58.375Z,11.27
2022-09-12T02:06:58.387Z,11.21
2022-09-12T02:07:58.413Z,11.21
2022-09-12T02:08:58.414Z,11.29
2022-09-12T02:09:58.426Z,11.27
2022-09-12T02:10:58.441Z,11.14
2022-09-12T02:11:58.455Z,11.15
2022-09-12T02:12:58.471Z,11.17
2022-09-12T02:13:58.482Z,11.17
2022-09-12T02:14:58.496Z,11.15
2022-09-12T02:15:58.534Z,11.06
2022-09-12T02:16:58.520Z,11.09
2022-09-12T02:17:58.541Z,11.10
2022-09-12T02:18:58.550Z,11.10
2022-09-12T02:19:58.565Z,11.09
2022-09-12T02:20:58.576Z,11.06
2022-09-12T02:21:58.589Z,11.09
2022-09-12T02:22:58.606Z,11.11
2022-09-12T02:23:58.621Z,11.09
2022-09-12T02:24:58.635Z,11.02
2022-09-12T02:25:58.644Z,11.07
2022-09-12T02:26:58.686Z,11.07
2022-09-12T02:27:58.673Z,11.09
2022-09-12T02:28:58.687Z,11.00
2022-09-12T02:29:58.704Z,11.07
2022-09-12T02:30:58.767Z,11.09
2022-09-12T02:31:58.756Z,11.09
2022-09-12T02:32:58.740Z,11.11
2022-09-12T02:33:58.753Z,11.03
2022-09-12T02:34:58.766Z,11.07
2022-09-12T02:35:58.786Z,11.10
2022-09-12T02:36:58.795Z,11.11
2022-09-12T02:37:58.809Z,11.03
2022-09-12T02:38:58.818Z,11.09
2022-09-12T02:39:58.980Z,11.11
2022-09-12T02:40:58.846Z,11.11
2022-09-12T02:41:58.868Z,11.10
2022-09-12T02:42:58.871Z,11.11
2022-09-12T02:43:58.887Z,11.09
2022-09-12T02:44:58.904Z,11.09
2022-09-12T02:45:58.955Z,11.09
2022-09-12T02:46:58.929Z,11.04
2022-09-12T02:47:58.964Z,10.99
2022-09-12T02:48:58.954Z,11.02
2022-09-12T02:49:58.967Z,10.96
2022-09-12T02:50:58.979Z,10.94
2022-09-12T02:51:58.993Z,11.07
2022-09-12T02:52:59.006Z,11.00
2022-09-12T02:53:59.125Z,11.03
2022-09-12T02:54:59.030Z,10.89
2022-09-12T02:55:59.046Z,10.88
2022-09-12T02:56:59.066Z,10.94
2022-09-12T02:57:59.074Z,10.89
2022-09-12T02:58:59.088Z,10.92
2022-09-12T02:59:59.102Z,11.00
2022-09-12T03:00:59.142Z,11.00
2022-09-12T03:01:59.156Z,10.89
2022-09-12T03:02:59.141Z,10.91
2022-09-12T03:03:59.185Z,10.91
2022-09-12T03:04:59.168Z,10.86
2022-09-12T03:05:59.180Z,10.92
2022-09-12T03:06:59.191Z,10.88
2022-09-12T03:07:59.206Z,10.82
2022-09-12T03:08:59.219Z,10.91
2022-09-12T03:09:59.240Z,10.88
2022-09-12T03:10:59.247Z,10.89
2022-09-12T03:11:59.261Z,10.89
2022-09-12T03:12:59.275Z,10.88
2022-09-12T03:13:59.293Z,10.84
2022-09-12T03:14:59.302Z,10.86
2022-09-12T03:15:59.313Z,10.79
2022-09-12T03:16:59.330Z,10.82
2022-09-12T03:17:59.336Z,10.82
2022-09-12T03:18:59.356Z,10.73
2022-09-12T03:19:59.392Z,10.82
2022-09-12T03:20:59.468Z,10.82
2022-09-12T03:21:59.392Z,10.79
2022-09-12T03:22:59.406Z,10.88
2022-09-12T03:23:59.417Z,10.73
2022-09-12T03:24:59.429Z,10.82
2022-09-12T03:25:59.449Z,10.82
2022-09-12T03:26:59.474Z,10.78
2022-09-12T03:27:59.481Z,10.81
2022-09-12T03:28:59.483Z,10.91
2022-09-12T03:29:59.505Z,10.74
2022-09-12T03:30:59.583Z,10.74
2022-09-12T03:31:59.524Z,10.79
2022-09-12T03:32:59.540Z,10.78
2022-09-12T03:33:59.553Z,10.74
2022-09-12T03:34:59.565Z,10.78
2022-09-12T03:35:59.602Z,10.81
2022-09-12T03:36:59.588Z,10.79
2022-09-12T03:37:59.607Z,10.79
2022-09-12T03:38:59.614Z,10.82
2022-09-12T03:39:59.661Z,10.78
2022-09-12T03:40:59.647Z,10.84
2022-09-12T03:41:59.658Z,10.76
2022-09-12T03:42:59.774Z,10.76
2022-09-12T03:43:59.688Z,10.73
2022-09-12T03:44:59.710Z,10.67
2022-09-12T03:45:59.726Z,10.68
2022-09-12T03:46:59.725Z,10.76
2022-09-12T03:47:59.733Z,10.71
2022-09-12T03:48:59.747Z,10.71
2022-09-12T03:49:59.762Z,10.70
2022-09-12T03:50:59.777Z,10.71
2022-09-12T03:51:59.818Z,10.67
2022-09-12T03:52:59.796Z,10.68
2022-09-12T03:53:59.809Z,10.66
2022-09-12T03:54:59.825Z,10.61
2022-09-12T03:55:59.842Z,10.64
2022-09-12T03:56:59.950Z,10.67
2022-09-12T03:57:59.862Z,10.66
2022-09-12T03:58:59.881Z,10.66
2022-09-12T03:59:59.888Z,10.61
2022-09-12T04:00:59.936Z,10.64
2022-09-12T04:01:59.929Z,10.63
2022-09-12T04:02:59.932Z,10.67
2022-09-12T04:03:59.943Z,10.68
2022-09-12T04:04:59.953Z,10.60
2022-09-12T04:05:59.970Z,10.61
2022-09-12T04:06:59.980Z,10.61
2022-09-12T04:08:00.021Z,10.68
2022-09-12T04:09:00.008Z,10.60
2022-09-12T04:10:00.027Z,10.74
2022-09-12T04:11:00.035Z,10.61
2022-09-12T04:12:00.053Z,10.66
2022-09-12T04:13:00.065Z,10.56
2022-09-12T04:14:00.093Z,10.64
2022-09-12T04:15:00.093Z,10.63
2022-09-12T04:16:00.105Z,10.66
2022-09-12T04:17:00.122Z,10.67
2022-09-12T04:18:05.098Z,10.67
2022-09-12T04:19:00.134Z,10.66
2022-09-12T04:20:00.168Z,10.64
2022-09-12T04:21:00.164Z,10.70
2022-09-12T04:22:00.173Z,10.64
2022-09-12T04:23:00.188Z,10.66
2022-09-12T04:24:00.225Z,10.63
2022-09-12T04:25:00.213Z,10.67
2022-09-12T04:26:00.231Z,10.61
2022-09-12T04:27:02.034Z,10.67
2022-09-12T04:28:00.257Z,10.66
2022-09-12T04:29:00.266Z,10.67
2022-09-12T04:30:00.288Z,10.70
2022-09-12T04:31:00.308Z,10.74
2022-09-12T04:32:00.309Z,10.68
2022-09-12T04:33:02.200Z,10.67
2022-09-12T04:34:00.335Z,10.76
2022-09-12T04:35:00.342Z,10.67
2022-09-12T04:36:00.357Z,10.71
2022-09-12T04:37:00.468Z,10.76
2022-09-12T04:38:00.383Z,10.73
2022-09-12T04:39:00.397Z,10.71
2022-09-12T04:40:00.529Z,10.74
2022-09-12T04:41:00.426Z,10.71
2022-09-12T04:42:00.438Z,10.73
2022-09-12T04:43:00.447Z,10.74
2022-09-12T04:44:00.563Z,10.81
2022-09-12T04:45:00.474Z,10.68
2022-09-12T04:46:00.531Z,10.71
2022-09-12T04:47:00.500Z,10.64
2022-09-12T04:48:00.507Z,10.64
2022-09-12T04:49:00.553Z,10.67
2022-09-12T04:50:00.541Z,10.67
2022-09-12T04:51:00.564Z,10.66
2022-09-12T04:52:00.564Z,10.67
2022-09-12T04:53:00.583Z,10.64
2022-09-12T04:54:00.593Z,10.64
2022-09-12T04:55:00.600Z,10.66
2022-09-12T04:56:00.646Z,10.66
2022-09-12T04:57:00.632Z,10.67
2022-09-12T04:58:00.856Z,10.67
2022-09-12T04:59:01.230Z,10.64
2022-09-12T05:00:05.121Z,10.67
2022-09-12T05:01:00.750Z,10.64
2022-09-12T05:02:00.782Z,10.66
2022-09-12T05:03:00.713Z,10.61
2022-09-12T05:04:00.721Z,10.55
2022-09-12T05:05:00.731Z,10.66
2022-09-12T05:06:00.748Z,10.63
2022-09-12T05:07:00.759Z,10.60
2022-09-12T05:08:00.771Z,10.55
2022-09-12T05:09:00.784Z,10.53
2022-09-12T05:10:00.800Z,10.48
2022-09-12T05:11:00.809Z,10.53
2022-09-12T05:12:05.218Z,10.61
2022-09-12T05:13:00.837Z,10.63
2022-09-12T05:14:00.851Z,10.59
2022-09-12T05:15:00.864Z,10.61
2022-09-12T05:16:00.876Z,10.56
2022-09-12T05:17:00.974Z,10.59
2022-09-12T05:18:00.901Z,10.63
2022-09-12T05:19:00.914Z,10.67
2022-09-12T05:20:00.932Z,10.68
2022-09-12T05:21:00.938Z,10.66
2022-09-12T05:22:00.956Z,10.61
2022-09-12T05:23:00.966Z,10.74
2022-09-12T05:24:00.983Z,10.64
2022-09-12T05:25:00.993Z,10.60
2022-09-12T05:26:01.001Z,10.68
2022-09-12T05:27:01.017Z,10.64
2022-09-12T05:28:01.051Z,10.63
2022-09-12T05:29:01.043Z,10.68
2022-09-12T05:30:01.056Z,10.63
2022-09-12T05:31:01.142Z,10.64
2022-09-12T05:32:01.084Z,10.60
2022-09-12T05:33:01.095Z,10.64
2022-09-12T05:34:01.109Z,10.53
2022-09-12T05:35:01.117Z,10.60
2022-09-12T05:36:01.134Z,10.59
2022-09-12T05:37:01.147Z,10.59
2022-09-12T05:38:01.154Z,10.53
2022-09-12T05:39:01.172Z,10.53
2022-09-12T05:40:01.221Z,10.60
2022-09-12T05:41:01.194Z,10.55
2022-09-12T05:42:01.211Z,10.59
2022-09-12T05:43:01.215Z,10.63
2022-09-12T05:44:01.257Z,10.60
2022-09-12T05:45:01.241Z,10.68
2022-09-12T05:46:01.281Z,10.60
2022-09-12T05:47:01.271Z,10.61
2022-09-12T05:48:01.286Z,10.63
2022-09-12T05:49:01.294Z,10.66
2022-09-12T05:50:01.308Z,10.66
2022-09-12T05:51:01.317Z,10.63
2022-09-12T05:52:01.334Z,10.64
2022-09-12T05:53:01.344Z,10.64
2022-09-12T05:54:01.362Z,10.60
2022-09-12T05:55:01.368Z,10.67
2022-09-12T05:56:01.384Z,10.70
2022-09-12T05:57:01.398Z,10.66
2022-09-12T05:58:01.408Z,10.64
2022-09-12T05:59:01.421Z,10.63
2022-09-12T06:00:01.458Z,10.68
2022-09-12T06:01:01.491Z,10.68
2022-09-12T06:02:01.490Z,10.67
2022-09-12T06:03:01.485Z,10.66
2022-09-12T06:04:01.567Z,10.71
2022-09-12T06:05:01.502Z,10.84
2022-09-12T06:06:01.512Z,10.74
2022-09-12T06:07:01.531Z,10.81
2022-09-12T06:08:01.542Z,10.78
2022-09-12T06:09:01.551Z,10.78
2022-09-12T06:10:01.586Z,10.74
2022-09-12T06:11:02.344Z,10.84
2022-09-12T06:12:01.589Z,10.94
2022-09-12T06:13:01.604Z,10.89
2022-09-12T06:14:01.620Z,10.94
2022-09-12T06:15:01.629Z,10.91
2022-09-12T06:16:01.665Z,10.89
2022-09-12T06:17:01.717Z,10.99
2022-09-12T06:18:01.671Z,11.00
2022-09-12T06:19:01.680Z,10.97
2022-09-12T06:20:01.703Z,11.00
2022-09-12T06:21:01.710Z,10.97
2022-09-12T06:22:01.728Z,11.02
2022-09-12T06:23:01.765Z,11.07
2022-09-12T06:24:01.745Z,11.00
2022-09-12T06:25:01.760Z,11.06
2022-09-12T06:26:01.838Z,11.04
2022-09-12T06:27:01.787Z,11.00
2022-09-12T06:28:01.795Z,11.04
2022-09-12T06:29:01.812Z,11.10
2022-09-12T06:30:01.834Z,11.11
2022-09-12T06:31:01.891Z,11.17
2022-09-12T06:32:01.873Z,11.22
2022-09-12T06:33:01.859Z,11.24
2022-09-12T06:34:01.873Z,11.36
2022-09-12T06:35:01.902Z,11.36
2022-09-12T06:36:01.904Z,11.39
2022-09-12T06:37:01.914Z,11.55
2022-09-12T06:38:01.933Z,11.58
2022-09-12T06:39:01.941Z,11.78
2022-09-12T06:40:02.303Z,11.88
2022-09-12T06:41:01.967Z,11.98
2022-09-12T06:42:01.981Z,12.12
2022-09-12T06:43:01.991Z,12.14
2022-09-12T06:44:02.003Z,12.31
2022-09-12T06:45:02.019Z,12.39
2022-09-12T06:46:02.089Z,12.49
2022-09-12T06:47:02.148Z,12.62
2022-09-12T06:48:02.087Z,12.62
2022-09-12T06:49:02.072Z,12.65
2022-09-12T06:50:02.093Z,12.78
2022-09-12T06:51:02.101Z,12.87
2022-09-12T06:52:02.110Z,13.03
2022-09-12T06:53:02.125Z,13.07
2022-09-12T06:54:02.137Z,13.08
2022-09-12T06:55:02.155Z,13.11
2022-09-12T06:56:02.167Z,13.12
2022-09-12T06:57:02.179Z,13.20
2022-09-12T06:58:02.195Z,13.07
2022-09-12T06:59:02.208Z,13.11
2022-09-12T07:00:02.222Z,13.23
2022-09-12T07:01:02.285Z,13.20
2022-09-12T07:02:02.291Z,13.26
2022-09-12T07:03:02.259Z,13.38
2022-09-12T07:04:02.300Z,13.44
2022-09-12T07:05:02.287Z,13.48
2022-09-12T07:06:02.302Z,13.49
2022-09-12T07:07:02.317Z,13.55
2022-09-12T07:08:02.329Z,13.51
2022-09-12T07:09:02.342Z,13.59
2022-09-12T07:10:02.351Z,13.64
2022-09-12T07:11:02.375Z,13.66
2022-09-12T07:12:02.383Z,13.81
2022-09-12T07:13:02.397Z,13.87
2022-09-12T07:14:02.408Z,13.88
2022-09-12T07:15:02.426Z,14.03
2022-09-12T07:16:02.436Z,14.07
2022-09-12T07:17:02.522Z,14.10
2022-09-12T07:18:02.494Z,14.22
2022-09-12T07:19:02.483Z,14.33
2022-09-12T07:20:02.516Z,14.37
2022-09-12T07:21:02.511Z,14.28
2022-09-12T07:22:02.523Z,14.32
2022-09-12T07:23:02.542Z,14.40
2022-09-12T07:24:02.548Z,14.51
2022-09-12T07:25:02.570Z,14.52
2022-09-12T07:26:02.599Z,14.43
2022-09-12T07:27:02.591Z,14.64
2022-09-12T07:28:02.604Z,14.65
2022-09-12T07:30:02.655Z,14.65
2022-09-12T07:31:02.686Z,14.73
2022-09-12T07:32:02.661Z,14.61
2022-09-12T07:33:02.676Z,14.65
2022-09-12T07:34:02.690Z,14.84
2022-09-12T07:35:02.705Z,14.94
2022-09-12T07:36:02.745Z,15.03
2022-09-12T07:37:02.733Z,15.07
2022-09-12T07:38:02.744Z,15.10
2022-09-12T07:39:02.761Z,15.06
2022-09-12T07:40:02.839Z,14.80
2022-09-12T07:41:02.791Z,14.72
2022-09-12T07:42:02.824Z,14.77
2022-09-12T07:43:02.821Z,14.80
2022-09-12T07:44:02.837Z,14.95
2022-09-12T07:45:02.846Z,14.94
2022-09-12T07:46:02.899Z,15.20
2022-09-12T07:47:02.873Z,15.28
2022-09-12T07:48:02.894Z,15.32
2022-09-12T07:49:02.907Z,15.32
2022-09-12T07:50:02.926Z,15.51
2022-09-12T07:51:02.931Z,15.50
2022-09-12T07:52:02.981Z,15.59
2022-09-12T07:53:02.967Z,15.54
2022-09-12T07:54:02.982Z,15.53
2022-09-12T07:55:03.001Z,15.41
2022-09-12T07:56:03.025Z,15.50
2022-09-12T07:57:03.025Z,15.43
2022-09-12T07:58:03.041Z,15.46
2022-09-12T07:59:03.052Z,15.50
2022-09-12T08:00:03.072Z,15.47
2022-09-12T08:01:03.147Z,15.60
2022-09-12T08:02:03.178Z,15.65
2022-09-12T08:03:03.114Z,15.86
2022-09-12T08:04:03.127Z,15.94
2022-09-12T08:05:03.142Z,16.01
2022-09-12T08:06:03.159Z,16.05
2022-09-12T08:07:03.171Z,16.33
2022-09-12T08:08:03.229Z,16.45
2022-09-12T08:09:03.202Z,16.27
2022-09-12T08:10:03.225Z,16.23
2022-09-12T08:11:03.232Z,16.23
2022-09-12T08:12:03.246Z,16.27
2022-09-12T08:13:03.280Z,16.27
2022-09-12T08:14:03.277Z,16.30
2022-09-12T08:15:03.289Z,16.33
2022-09-12T08:16:03.381Z,16.52
2022-09-12T08:17:03.322Z,16.61
2022-09-12T08:18:03.339Z,16.68
2022-09-12T08:19:03.349Z,16.68
2022-09-12T08:20:03.369Z,16.71
2022-09-12T08:21:03.486Z,16.71
2022-09-12T08:22:03.407Z,16.85
2022-09-12T08:23:03.410Z,16.94
2022-09-12T08:24:03.458Z,16.76
2022-09-12T08:25:03.446Z,16.71
2022-09-12T08:26:06.149Z,16.53
2022-09-12T08:27:03.491Z,16.53
2022-09-12T08:28:03.490Z,16.49
2022-09-12T08:29:03.505Z,16.61
2022-09-12T08:30:03.523Z,16.82
2022-09-12T08:31:03.592Z,16.97
2022-09-12T08:32:03.551Z,16.96
2022-09-12T08:33:03.572Z,16.83
2022-09-12T08:34:03.588Z,16.63
2022-09-12T08:35:03.602Z,16.67
2022-09-12T08:36:03.659Z,16.70
2022-09-12T08:37:03.735Z,16.73
2022-09-12T08:38:03.648Z,16.94
2022-09-12T08:39:03.663Z,16.97
2022-09-12T08:40:03.757Z,17.06
2022-09-12T08:41:03.697Z,17.07
2022-09-12T08:42:03.840Z,17.36
2022-09-12T08:43:03.726Z,17.41
2022-09-12T08:44:03.739Z,17.28
2022-09-12T08:45:03.757Z,17.31
2022-09-12T08:46:03.852Z,17.33
2022-09-12T08:47:03.790Z,17.33
2022-09-12T08:48:03.806Z,17.31
2022-09-12T08:49:03.825Z,17.04
2022-09-12T08:50:03.859Z,17.00
2022-09-12T08:51:03.859Z,16.97
2022-09-12T08:52:03.872Z,17.01
2022-09-12T08:53:03.891Z,16.97
2022-09-12T08:54:03.903Z,16.91
2022-09-12T08:55:03.920Z,17.03
2022-09-12T08:56:03.960Z,17.14
2022-09-12T08:57:03.953Z,17.66
2022-09-12T08:58:03.967Z,17.55
2022-09-12T08:59:03.987Z,17.63
2022-09-12T09:00:04.007Z,17.55
2022-09-12T09:01:04.141Z,17.84
2022-09-12T09:02:04.131Z,18.27
2022-09-12T09:03:04.049Z,18.35
2022-09-12T09:04:04.067Z,18.47
2022-09-12T09:05:04.094Z,18.54
2022-09-12T09:06:04.100Z,18.60
2022-09-12T09:07:04.132Z,18.66
2022-09-12T09:08:04.131Z,18.72
2022-09-12T09:09:04.146Z,18.69
2022-09-12T09:10:04.168Z,18.69
2022-09-12T09:11:04.179Z,18.57
2022-09-12T09:12:04.225Z,18.63
2022-09-12T09:13:04.217Z,18.45
2022-09-12T09:14:05.358Z,18.54
2022-09-12T09:15:04.249Z,18.70
2022-09-12T09:16:04.312Z,18.84
2022-09-12T09:17:04.285Z,19.11
2022-09-12T09:18:04.311Z,18.92
2022-09-12T09:19:04.318Z,19.06
2022-09-12T09:20:04.337Z,19.14
2022-09-12T09:21:04.353Z,18.98
2022-09-12T09:22:04.374Z,18.95
2022-09-12T09:23:04.387Z,19.19
2022-09-12T09:24:04.408Z,19.31
2022-09-12T09:25:04.427Z,19.44
2022-09-12T09:26:04.436Z,19.36
2022-09-12T09:27:14.351Z,19.31
2022-09-12T09:28:04.500Z,19.41
2022-09-12T09:29:04.489Z,19.21
2022-09-12T09:30:04.508Z,19.18
2022-09-12T09:31:04.588Z,19.19
2022-09-12T09:32:04.648Z,19.40
2022-09-12T09:33:04.563Z,19.63
2022-09-12T09:34:04.580Z,19.92
2022-09-12T09:35:04.598Z,20.05
2022-09-12T09:36:04.615Z,20.13
2022-09-12T09:37:04.633Z,20.11
2022-09-12T09:38:04.657Z,20.16
2022-09-12T09:39:04.672Z,20.23
2022-09-12T09:40:04.760Z,20.43
2022-09-12T09:41:04.713Z,20.52
2022-09-12T09:42:04.725Z,20.48
2022-09-12T09:43:04.745Z,20.47
2022-09-12T09:44:04.888Z,20.38
2022-09-12T09:45:04.778Z,20.38
2022-09-12T09:46:04.889Z,20.58
2022-09-12T09:47:04.816Z,20.54
2022-09-12T09:48:04.835Z,20.70
2022-09-12T09:49:04.866Z,20.69
2022-09-12T09:50:04.870Z,20.66
2022-09-12T09:51:04.884Z,20.54
2022-09-12T09:52:04.907Z,20.54
2022-09-12T09:53:04.924Z,20.51
2022-09-12T09:54:04.944Z,20.64
2022-09-12T09:55:04.974Z,20.62
2022-09-12T09:56:04.982Z,20.57
2022-09-12T09:57:05.006Z,20.70
2022-09-12T09:58:05.021Z,20.73
2022-09-12T09:59:05.037Z,20.84
2022-09-12T10:00:05.082Z,21.14
2022-09-12T10:01:05.153Z,21.25
2022-09-12T10:02:05.137Z,21.53
2022-09-12T10:03:05.113Z,21.59
2022-09-12T10:04:05.134Z,21.64
2022-09-12T10:05:05.153Z,21.96
2022-09-12T10:06:05.174Z,22.09
2022-09-12T10:07:05.200Z,22.12
2022-09-12T10:08:05.208Z,22.12
2022-09-12T10:09:05.233Z,22.33
2022-09-12T10:10:05.254Z,22.27
2022-09-12T10:11:05.268Z,22.14
2022-09-12T10:12:05.286Z,22.15
2022-09-12T10:13:05.307Z,22.14
2022-09-12T10:14:05.325Z,21.92
2022-09-12T10:15:05.348Z,22.05
2022-09-12T10:16:05.502Z,21.86
2022-09-12T10:17:05.387Z,21.79
2022-09-12T10:18:05.408Z,22.12
2022-09-12T10:19:05.426Z,22.22
2022-09-12T10:20:22.018Z,22.12
2022-09-12T10:21:05.465Z,22.14
2022-09-12T10:22:05.484Z,22.14
2022-09-12T10:23:05.502Z,22.17
2022-09-12T10:24:05.526Z,22.12
2022-09-12T10:25:05.541Z,22.07
2022-09-12T10:26:05.564Z,22.24
2022-09-12T10:27:05.590Z,22.12
2022-09-12T10:28:05.601Z,22.30
2022-09-12T10:29:05.623Z,22.07
2022-09-12T10:30:05.645Z,22.25
2022-09-12T10:31:05.727Z,22.31
2022-09-12T10:32:05.718Z,22.28
2022-09-12T10:33:05.703Z,22.10
2022-09-12T10:34:05.731Z,22.49
2022-09-12T10:35:05.748Z,22.58
2022-09-12T10:36:05.763Z,22.65
2022-09-12T10:37:05.788Z,22.70
2022-09-12T10:38:05.806Z,22.80
2022-09-12T10:39:05.926Z,22.95
2022-09-12T10:40:05.887Z,23.17
2022-09-12T10:41:05.862Z,23.10
2022-09-12T10:42:05.883Z,23.00
2022-09-12T10:43:05.905Z,23.25
2022-09-12T10:44:05.923Z,23.50
2022-09-12T10:45:05.952Z,23.42
2022-09-12T10:46:06.010Z,23.63
2022-09-12T10:47:05.986Z,23.63
2022-09-12T10:48:07.785Z,23.60
2022-09-12T10:49:06.134Z,23.42
2022-09-12T10:50:06.046Z,23.69
2022-09-12T10:51:06.070Z,24.02
2022-09-12T10:52:06.101Z,24.09
2022-09-12T10:53:06.122Z,23.94
2022-09-12T10:54:06.140Z,23.84
2022-09-12T10:55:06.154Z,23.25
2022-09-12T10:56:06.177Z,23.53
2022-09-12T10:57:06.197Z,23.80
2022-09-12T10:58:06.220Z,23.65
2022-09-12T10:59:06.236Z,23.50
2022-09-12T11:00:06.259Z,23.72
2022-09-12T11:01:06.324Z,23.48
2022-09-12T11:02:06.359Z,23.65
2022-09-12T11:03:06.326Z,23.68
2022-09-12T11:04:06.375Z,23.95
2022-09-12T11:05:06.367Z,24.24
2022-09-12T11:06:06.413Z,24.28
2022-09-12T11:07:06.410Z,24.02
2022-09-12T11:08:06.431Z,23.25
2022-09-12T11:09:06.457Z,23.28
2022-09-12T11:10:06.479Z,23.78
2022-09-12T11:11:06.494Z,24.09
2022-09-12T11:12:06.523Z,24.21
2022-09-12T11:13:06.538Z,24.22
2022-09-12T11:14:06.565Z,24.16
2022-09-12T11:15:06.582Z,24.35
2022-09-12T11:16:06.642Z,24.57
2022-09-12T11:17:08.864Z,24.58
2022-09-12T11:18:06.651Z,24.43
2022-09-12T11:19:06.675Z,23.87
2022-09-12T11:20:06.723Z,24.09
2022-09-12T11:21:06.711Z,24.34
2022-09-12T11:22:06.736Z,24.37
2022-09-12T11:23:06.759Z,24.49
2022-09-12T11:24:06.781Z,24.40
2022-09-12T11:25:06.801Z,24.53
2022-09-12T11:26:06.825Z,24.73
2022-09-12T11:27:06.847Z,24.96
2022-09-12T11:28:06.871Z,24.80
2022-09-12T11:29:06.890Z,24.90
2022-09-12T11:30:06.915Z,24.91
2022-09-12T11:31:07.008Z,24.93
2022-09-12T11:32:06.959Z,25.24
2022-09-12T11:33:06.980Z,25.21
2022-09-12T11:34:07.010Z,25.30
2022-09-12T11:35:07.023Z,25.28
2022-09-12T11:36:07.092Z,25.35
2022-09-12T11:37:10.442Z,25.10
2022-09-12T11:38:07.103Z,24.95
2022-09-12T11:39:07.141Z,25.09
2022-09-12T11:40:07.180Z,24.96
2022-09-12T11:41:07.162Z,24.77
2022-09-12T11:42:07.186Z,24.55
2022-09-12T11:43:07.205Z,24.49
2022-09-12T11:44:07.233Z,24.88
2022-09-12T11:45:07.255Z,25.36
2022-09-12T11:46:07.360Z,25.51
2022-09-12T11:47:07.301Z,25.51
2022-09-12T11:48:07.322Z,25.76
2022-09-12T11:49:07.346Z,25.61
2022-09-12T11:50:07.403Z,25.88
2022-09-12T11:51:07.414Z,25.88
2022-09-12T11:52:07.465Z,25.47
2022-09-12T11:53:07.446Z,25.76
2022-09-12T11:54:07.466Z,25.98
2022-09-12T11:55:07.492Z,26.02
2022-09-12T11:56:07.503Z,26.13
2022-09-12T11:57:07.531Z,25.57
2022-09-12T11:58:07.562Z,25.77
2022-09-12T11:59:07.677Z,26.06
2022-09-12T12:00:07.600Z,26.06
2022-09-12T12:01:07.626Z,25.62
2022-09-12T12:02:07.711Z,25.17
2022-09-12T12:03:07.673Z,25.03
2022-09-12T12:04:07.695Z,25.15
2022-09-12T12:05:07.720Z,25.30
2022-09-12T12:06:07.739Z,25.08
2022-09-12T12:07:07.772Z,24.95
2022-09-12T12:08:07.819Z,24.81
2022-09-12T12:09:07.818Z,25.15
2022-09-12T12:10:07.838Z,25.70
2022-09-12T12:11:07.860Z,25.20
2022-09-12T12:12:07.886Z,24.73
2022-09-12T12:13:13.342Z,24.25
2022-09-12T12:14:07.930Z,24.55
2022-09-12T12:15:07.957Z,24.64
2022-09-12T12:16:08.049Z,24.85
2022-09-12T12:17:08.005Z,25.45
2022-09-12T12:18:08.029Z,25.75
2022-09-12T12:19:10.723Z,25.42
2022-09-12T12:20:08.887Z,24.35
2022-09-12T12:21:08.108Z,24.15
2022-09-12T12:22:08.134Z,23.94
2022-09-12T12:23:08.145Z,24.45
2022-09-12T12:24:08.199Z,24.85
2022-09-12T12:25:08.192Z,25.13
2022-09-12T12:26:08.217Z,25.06
2022-09-12T12:27:08.237Z,25.25
2022-09-12T12:28:08.260Z,25.33
2022-09-12T12:29:08.286Z,25.60
2022-09-12T12:30:08.402Z,25.35
2022-09-12T12:31:08.418Z,24.71
2022-09-12T12:32:08.360Z,24.80
2022-09-12T12:33:08.379Z,24.52
2022-09-12T12:34:08.498Z,24.83
2022-09-12T12:35:08.426Z,24.83
2022-09-12T12:36:08.445Z,25.10
2022-09-12T12:37:08.472Z,25.52
2022-09-12T12:38:08.490Z,25.27
2022-09-12T12:39:08.516Z,24.76
2022-09-12T12:40:08.687Z,24.62
2022-09-12T12:41:08.568Z,24.67
2022-09-12T12:42:08.584Z,24.98
2022-09-12T12:43:08.608Z,24.68
2022-09-12T12:44:08.636Z,24.84
2022-09-12T12:45:08.680Z,24.90
2022-09-12T12:46:08.715Z,25.35
2022-09-12T12:47:08.703Z,25.40
2022-09-12T12:48:08.757Z,25.47
2022-09-12T12:49:08.751Z,25.76
2022-09-12T12:50:08.827Z,24.95
2022-09-12T12:51:08.802Z,25.05
2022-09-12T12:52:08.821Z,25.24
2022-09-12T12:53:08.842Z,25.30
2022-09-12T12:54:12.923Z,25.09